createdAt,value
2018-11-14T00:00:23.011Z,83.73
2018-11-14T00:02:52.189Z,83.27
2018-11-14T00:05:20.095Z,80.82
2018-11-14T00:07:48.497Z,81.76
2018-11-14T00:10:16.906Z,81.96
2018-11-14T00:12:44.547Z,81.77
2018-11-14T00:15:15.143Z,81.66
2018-11-14T00:17:44.908Z,82.05
2018-11-14T00:20:13.276Z,82.57
2018-11-14T00:22:43.819Z,81.97
2018-11-14T00:25:11.993Z,83.89
2018-11-14T00:27:40.126Z,83.57
2018-11-14T00:30:17.883Z,81.89
2018-11-14T00:32:46.178Z,83.17
2018-11-14T00:35:16.275Z,80.67
2018-11-14T00:37:45.541Z,82.14
2018-11-14T00:40:14.875Z,81.97
2018-11-14T00:42:45.531Z,83.23
2018-11-14T00:45:18.073Z,83.09
2018-11-14T00:47:47.641Z,83.97
2018-11-14T00:50:17.058Z,83.20
2018-11-14T00:52:46.777Z,83.29
2018-11-14T00:55:18.048Z,83.65
2018-11-14T00:57:48.183Z,84.25
2018-11-14T01:00:18.924Z,85.08
2018-11-14T01:02:46.933Z,84.71
2018-11-14T01:05:15.592Z,84.74
2018-11-14T01:07:43.558Z,84.11
2018-11-14T01:10:14.091Z,84.65
2018-11-14T01:12:42.402Z,85.16
2018-11-14T01:15:13.499Z,83.84
2018-11-14T01:17:41.940Z,83.24
2018-11-14T01:20:12.496Z,82.93
2018-11-14T01:22:41.087Z,83.97
2018-11-14T01:25:10.117Z,82.98
2018-11-14T01:27:38.136Z,82.91
2018-11-14T01:30:08.875Z,84.45
2018-11-14T01:32:36.786Z,86.02
2018-11-14T01:35:05.490Z,85.32
2018-11-14T01:37:33.495Z,85.20
2018-11-14T01:40:01.551Z,85.48
2018-11-14T01:42:29.449Z,85.04
2018-11-14T01:45:03.786Z,85.71
2018-11-14T01:47:31.853Z,86.04
2018-11-14T01:49:59.811Z,85.90
2018-11-14T01:52:27.813Z,86.78
2018-11-14T01:54:55.810Z,85.61
2018-11-14T01:57:23.936Z,85.95
2018-11-14T01:59:51.821Z,86.06
2018-11-14T02:02:19.737Z,85.74
2018-11-14T02:04:47.732Z,86.38
2018-11-14T02:07:15.745Z,87.73
2018-11-14T02:09:43.832Z,84.25
2018-11-14T02:12:11.758Z,85.05
2018-11-14T02:14:39.630Z,85.44
2018-11-14T02:17:07.620Z,86.05
2018-11-14T02:19:36.719Z,87.59
2018-11-14T02:22:04.915Z,88.53
2018-11-14T02:24:33.946Z,90.23
2018-11-14T02:27:01.878Z,90.40
2018-11-14T02:29:29.987Z,90.65
2018-11-14T02:31:58.591Z,91.04
2018-11-14T02:34:26.660Z,89.66
2018-11-14T02:36:54.652Z,90.35
2018-11-14T02:39:22.688Z,90.84
2018-11-14T02:41:50.831Z,90.29
2018-11-14T02:44:20.281Z,88.08
2018-11-14T02:46:48.430Z,87.66
2018-11-14T02:49:16.387Z,88.47
2018-11-14T02:51:44.358Z,87.08
2018-11-14T02:54:12.327Z,86.03
2018-11-14T02:56:40.273Z,84.70
2018-11-14T02:59:08.279Z,85.95
2018-11-14T03:01:36.256Z,84.38
2018-11-14T03:04:04.382Z,86.30
2018-11-14T03:06:32.357Z,87.93
2018-11-14T03:09:00.328Z,88.55
2018-11-14T03:11:28.226Z,90.42
2018-11-14T03:13:56.163Z,89.68
2018-11-14T03:16:24.075Z,88.79
2018-11-14T03:18:51.954Z,89.50
2018-11-14T03:21:19.854Z,89.22
2018-11-14T03:23:48.886Z,91.16
2018-11-14T03:26:16.821Z,91.54
2018-11-14T03:28:44.753Z,91.08
2018-11-14T03:31:13.377Z,85.43
2018-11-14T03:33:41.239Z,87.20
2018-11-14T03:36:14.610Z,88.61
2018-11-14T03:38:42.472Z,86.38
2018-11-14T03:41:10.640Z,83.94
2018-11-14T03:43:38.702Z,85.69
2018-11-14T03:46:06.784Z,85.99
2018-11-14T03:48:34.747Z,85.34
2018-11-14T03:51:02.830Z,87.50
2018-11-14T03:53:30.760Z,82.36
2018-11-14T03:55:58.741Z,84.54
2018-11-14T03:58:26.748Z,86.44
2018-11-14T04:00:54.579Z,87.48
2018-11-14T04:03:23.234Z,89.24
2018-11-14T04:05:51.243Z,89.94
2018-11-14T04:08:19.291Z,89.62
2018-11-14T04:10:47.166Z,89.61
2018-11-14T04:13:15.094Z,89.38
2018-11-14T04:15:43.065Z,89.96
2018-11-14T04:18:11.002Z,91.36
2018-11-14T04:20:38.931Z,92.89
2018-11-14T04:23:06.870Z,93.53
2018-11-14T04:25:34.838Z,93.66
2018-11-14T04:28:02.781Z,94.03
2018-11-14T04:30:30.786Z,93.89
2018-11-14T04:32:58.762Z,92.63
2018-11-14T04:35:26.870Z,91.62
2018-11-14T04:37:54.977Z,91.66
2018-11-14T04:40:23.948Z,91.67
2018-11-14T04:42:51.941Z,92.17
2018-11-14T04:45:22.054Z,90.71
2018-11-14T04:47:50.231Z,90.90
2018-11-14T04:50:19.875Z,89.51
2018-11-14T04:52:48.728Z,90.05
2018-11-14T04:55:18.846Z,89.94
2018-11-14T04:57:48.005Z,90.71
2018-11-14T05:00:16.835Z,89.95
2018-11-14T05:02:45.640Z,87.63
2018-11-14T05:05:15.015Z,84.19
2018-11-14T05:07:43.057Z,85.11
2018-11-14T05:10:13.453Z,84.53
2018-11-14T05:12:41.422Z,84.94
2018-11-14T05:15:10.831Z,83.91
2018-11-14T05:17:38.896Z,85.33
2018-11-14T05:20:08.389Z,83.72
2018-11-14T05:22:36.486Z,82.75
2018-11-14T05:25:05.415Z,81.73
2018-11-14T05:27:33.459Z,83.14
2018-11-14T05:30:06.490Z,81.25
2018-11-14T05:32:34.553Z,81.06
2018-11-14T05:35:07.915Z,81.86
2018-11-14T05:37:36.791Z,83.75
2018-11-14T05:40:06.632Z,82.36
2018-11-14T05:42:34.833Z,84.19
2018-11-14T05:45:02.864Z,85.21
2018-11-14T05:47:30.776Z,87.04
2018-11-14T05:49:58.747Z,88.72
2018-11-14T05:52:27.406Z,89.52
2018-11-14T05:54:55.966Z,90.74
2018-11-14T05:57:28.405Z,91.74
2018-11-14T05:59:56.367Z,91.44
2018-11-14T06:02:24.416Z,90.60
2018-11-14T06:04:52.425Z,89.46
2018-11-14T06:07:20.567Z,89.19
2018-11-14T06:09:48.947Z,88.29
2018-11-14T06:12:17.002Z,87.83
2018-11-14T06:14:44.954Z,87.00
2018-11-14T06:17:12.933Z,87.75
2018-11-14T06:19:40.971Z,84.95
2018-11-14T06:22:08.957Z,86.46
2018-11-14T06:24:37.081Z,87.17
2018-11-14T06:27:05.156Z,85.59
2018-11-14T06:29:33.212Z,84.82
2018-11-14T06:32:01.234Z,84.48
2018-11-14T06:34:29.268Z,84.71
2018-11-14T06:36:57.363Z,84.90
2018-11-14T06:39:25.679Z,83.89
2018-11-14T06:41:53.677Z,82.99
2018-11-14T06:44:21.716Z,82.41
2018-11-14T06:46:50.504Z,81.51
2018-11-14T06:49:18.686Z,81.22
2018-11-14T06:51:46.915Z,83.81
2018-11-14T06:54:14.895Z,84.07
2018-11-14T06:56:42.929Z,84.10
2018-11-14T06:59:10.955Z,83.82
2018-11-14T07:01:38.794Z,85.61
2018-11-14T07:04:07.018Z,87.34
2018-11-14T07:06:34.997Z,87.85
2018-11-14T07:09:03.353Z,87.61
2018-11-14T07:11:31.887Z,84.60
2018-11-14T07:13:59.912Z,85.12
2018-11-14T07:16:27.902Z,84.96
2018-11-14T07:18:55.887Z,82.24
2018-11-14T07:21:23.857Z,83.41
2018-11-14T07:23:56.358Z,83.25
2018-11-14T07:26:31.930Z,84.33
2018-11-14T07:29:04.511Z,83.01
2018-11-14T07:31:37.156Z,81.34
2018-11-14T07:34:05.710Z,80.68
2018-11-14T07:36:34.102Z,80.17
2018-11-14T07:39:08.160Z,83.64
2018-11-14T07:41:40.227Z,82.84
2018-11-14T07:44:15.213Z,83.85
2018-11-14T07:46:57.512Z,83.58
2018-11-14T07:49:25.659Z,85.53
2018-11-14T07:51:54.059Z,87.91
2018-11-14T07:54:23.004Z,88.63
2018-11-14T07:56:51.042Z,88.34
2018-11-14T07:59:18.976Z,88.33
2018-11-14T08:01:48.094Z,86.94
2018-11-14T08:04:16.078Z,85.39
2018-11-14T08:06:46.912Z,87.45
2018-11-14T08:09:17.488Z,88.63
2018-11-14T08:11:47.573Z,87.13
2018-11-14T08:14:16.215Z,86.09
2018-11-14T08:16:46.101Z,86.16
2018-11-14T08:19:16.322Z,86.43
2018-11-14T08:21:46.548Z,85.50
2018-11-14T08:24:16.801Z,84.61
2018-11-14T08:26:47.017Z,84.01
2018-11-14T08:29:16.978Z,82.62
2018-11-14T08:31:46.983Z,81.50
2018-11-14T08:34:16.993Z,77.51
2018-11-14T08:36:46.917Z,80.09
2018-11-14T08:39:17.532Z,79.50
2018-11-14T08:41:47.750Z,79.48
2018-11-14T08:44:18.170Z,79.67
2018-11-14T08:46:49.076Z,79.38
2018-11-14T08:49:19.056Z,79.10
2018-11-14T08:51:49.087Z,78.29
2018-11-14T08:54:17.097Z,79.46
2018-11-14T08:56:45.143Z,79.01
2018-11-14T08:59:13.072Z,79.48
2018-11-14T09:01:42.120Z,78.67
2018-11-14T09:04:10.427Z,78.54
2018-11-14T09:06:38.398Z,78.10
2018-11-14T09:09:08.697Z,76.82
2018-11-14T09:11:36.870Z,76.11
2018-11-14T09:14:05.189Z,75.85
2018-11-14T09:16:33.209Z,75.76
2018-11-14T09:19:01.289Z,75.20
2018-11-14T09:21:29.262Z,73.93
2018-11-14T09:23:57.410Z,73.78
2018-11-14T09:26:25.397Z,70.91
2018-11-14T09:28:53.311Z,70.79
2018-11-14T09:31:21.291Z,69.05
2018-11-14T09:33:49.354Z,68.56
2018-11-14T09:36:17.443Z,68.72
2018-11-14T09:38:45.409Z,68.86
2018-11-14T09:41:13.474Z,69.53
2018-11-14T09:43:41.586Z,69.81
2018-11-14T09:46:09.560Z,69.02
2018-11-14T09:48:37.546Z,65.36
2018-11-14T09:51:05.555Z,66.52
2018-11-14T09:53:33.510Z,66.82
2018-11-14T09:56:01.425Z,66.38
2018-11-14T09:58:29.914Z,65.69
2018-11-14T10:00:58.070Z,65.85
2018-11-14T10:03:26.101Z,65.46
2018-11-14T10:05:54.215Z,64.25
2018-11-14T10:08:22.191Z,65.16
2018-11-14T10:10:50.222Z,64.84
2018-11-14T10:13:18.083Z,65.62
2018-11-14T10:15:46.134Z,64.92
2018-11-14T10:18:14.081Z,64.72
2018-11-14T10:20:42.087Z,64.84
2018-11-14T10:23:10.058Z,66.62
2018-11-14T10:25:37.974Z,66.46
2018-11-14T10:28:06.053Z,66.14
2018-11-14T10:30:34.038Z,67.05
2018-11-14T10:33:02.432Z,66.93
2018-11-14T10:35:30.538Z,68.27
2018-11-14T10:37:58.446Z,68.22
2018-11-14T10:40:27.673Z,67.92
2018-11-14T10:42:55.829Z,66.37
2018-11-14T10:48:11.961Z,68.74
2018-11-14T10:50:40.082Z,67.79
2018-11-14T10:53:08.463Z,67.55
2018-11-14T10:55:36.677Z,67.71
2018-11-14T10:58:04.974Z,68.04
2018-11-14T11:00:38.501Z,67.52
2018-11-14T11:03:16.843Z,67.79
2018-11-14T11:05:50.463Z,69.17
2018-11-14T11:08:30.450Z,69.41
2018-11-14T11:11:03.885Z,69.32
2018-11-14T11:13:37.459Z,68.25
2018-11-14T11:16:10.984Z,68.17
2018-11-14T11:18:38.886Z,69.89
2018-11-14T11:21:07.373Z,69.83
2018-11-14T11:23:35.552Z,68.09
2018-11-14T11:26:03.681Z,67.87
2018-11-14T11:28:32.758Z,69.35
2018-11-14T11:31:00.874Z,69.49
2018-11-14T11:33:28.952Z,67.90
2018-11-14T11:35:57.002Z,69.72
2018-11-14T11:38:25.099Z,68.76
2018-11-14T11:40:53.223Z,68.98
2018-11-14T11:43:21.583Z,67.81
2018-11-14T11:45:49.818Z,69.81
2018-11-14T11:48:17.843Z,71.66
2018-11-14T11:50:45.987Z,70.24
2018-11-14T11:53:13.953Z,70.63
2018-11-14T11:55:41.985Z,71.19
2018-11-14T11:58:10.098Z,71.86
2018-11-14T12:00:38.375Z,72.32
2018-11-14T12:03:09.084Z,73.99
2018-11-14T12:05:39.116Z,73.57
2018-11-14T12:08:07.038Z,73.65
2018-11-14T12:10:36.187Z,72.35
2018-11-14T12:13:04.528Z,72.26
2018-11-14T12:15:32.727Z,71.16
2018-11-14T12:18:00.883Z,71.27
2018-11-14T12:20:28.962Z,71.04
2018-11-14T12:22:56.958Z,71.81
2018-11-14T12:25:24.922Z,71.98
2018-11-14T12:27:52.932Z,71.73
2018-11-14T12:30:20.965Z,71.84
2018-11-14T12:32:48.996Z,73.14
2018-11-14T12:35:17.195Z,74.63
2018-11-14T12:37:45.161Z,75.73
2018-11-14T12:40:13.885Z,76.37
2018-11-14T12:42:42.048Z,75.78
2018-11-14T12:45:14.532Z,75.91
2018-11-14T12:47:42.431Z,75.74
2018-11-14T12:50:11.605Z,76.46
2018-11-14T12:52:40.010Z,76.03
2018-11-14T12:55:10.188Z,75.11
2018-11-14T12:57:46.027Z,75.86
2018-11-14T13:00:16.454Z,76.62
2018-11-14T13:02:44.746Z,75.44
2018-11-14T13:05:13.594Z,75.36
2018-11-14T13:07:41.723Z,75.74
2018-11-14T13:10:11.725Z,76.32
2018-11-14T13:12:41.077Z,75.94
2018-11-14T13:15:10.246Z,75.93
2018-11-14T13:17:38.386Z,76.39
2018-11-14T13:20:09.061Z,76.99
2018-11-14T13:22:37.050Z,77.13
2018-11-14T13:25:06.885Z,76.93
2018-11-14T13:27:34.876Z,78.09
2018-11-14T13:30:03.187Z,77.55
2018-11-14T13:32:31.859Z,77.98
2018-11-14T13:34:59.926Z,77.30
2018-11-14T13:37:28.016Z,77.06
2018-11-14T13:39:56.006Z,77.88
2018-11-14T13:42:24.362Z,77.72
2018-11-14T13:44:52.359Z,78.41
2018-11-14T13:47:20.336Z,78.50
2018-11-14T13:49:55.231Z,78.11
2018-11-14T13:52:23.203Z,78.82
2018-11-14T13:54:51.344Z,79.69
2018-11-14T13:57:19.622Z,79.49
2018-11-14T13:59:48.045Z,79.72
2018-11-14T14:02:18.191Z,79.03
2018-11-14T14:04:46.217Z,79.20
2018-11-14T14:10:08.136Z,78.40
2018-11-14T14:12:36.182Z,78.42
2018-11-14T14:15:05.021Z,79.31
2018-11-14T14:17:33.012Z,77.74
2018-11-14T14:20:01.065Z,78.52
2018-11-14T14:22:29.067Z,78.86
2018-11-14T14:24:57.134Z,78.39
2018-11-14T14:27:25.153Z,78.37
2018-11-14T14:29:53.224Z,78.46
2018-11-14T14:32:21.463Z,77.69
2018-11-14T14:34:49.598Z,77.11
2018-11-14T14:37:17.589Z,77.13
2018-11-14T14:39:45.617Z,76.93
2018-11-14T14:42:13.766Z,77.49
2018-11-14T14:44:41.971Z,78.65
2018-11-14T14:47:10.241Z,78.65
2018-11-14T14:49:38.310Z,78.44
2018-11-14T14:52:07.576Z,77.46
2018-11-14T14:54:35.614Z,78.34
2018-11-14T14:57:04.526Z,78.71
2018-11-14T14:59:32.446Z,78.85
2018-11-14T15:02:01.496Z,78.86
2018-11-14T15:04:29.737Z,78.97
2018-11-14T15:06:59.025Z,78.23
2018-11-14T15:09:27.481Z,76.90
2018-11-14T15:11:55.998Z,76.21
2018-11-14T15:14:24.115Z,75.17
2018-11-14T15:16:52.331Z,75.22
2018-11-14T15:19:20.778Z,74.66
2018-11-14T15:21:49.136Z,74.85
2018-11-14T15:24:17.479Z,73.69
2018-11-14T15:26:45.565Z,74.58
2018-11-14T15:29:13.593Z,74.31
2018-11-14T15:31:41.690Z,73.59
2018-11-14T15:34:09.672Z,73.74
2018-11-14T15:36:38.220Z,73.14
2018-11-14T15:39:09.045Z,73.29
2018-11-14T15:41:37.073Z,72.61
2018-11-14T15:44:05.422Z,72.46
2018-11-14T15:46:33.406Z,73.06
2018-11-14T15:49:01.397Z,73.44
2018-11-14T15:51:30.029Z,74.21
2018-11-14T15:53:58.049Z,74.58
2018-11-14T15:56:26.166Z,74.01
2018-11-14T15:58:54.151Z,74.26
2018-11-14T16:01:22.304Z,74.39
2018-11-14T16:03:50.400Z,74.15
2018-11-14T16:06:19.301Z,74.66
2018-11-14T16:08:47.284Z,74.60
2018-11-14T16:11:15.305Z,74.05
2018-11-14T16:13:47.764Z,74.34
2018-11-14T16:16:15.731Z,74.27
2018-11-14T16:18:43.810Z,74.23
2018-11-14T16:21:11.897Z,73.76
2018-11-14T16:23:40.036Z,74.05
2018-11-14T16:26:07.939Z,73.82
2018-11-14T16:28:35.888Z,74.54
2018-11-14T16:31:03.881Z,74.30
2018-11-14T16:33:31.899Z,73.98
2018-11-14T16:35:59.978Z,74.50
2018-11-14T16:38:27.935Z,74.20
2018-11-14T16:40:56.009Z,73.36
2018-11-14T16:43:24.276Z,73.63
2018-11-14T16:45:52.382Z,73.57
2018-11-14T16:48:20.288Z,72.50
2018-11-14T16:50:50.056Z,73.09
2018-11-14T16:53:18.354Z,71.88
2018-11-14T16:55:46.448Z,71.93
2018-11-14T16:58:15.838Z,71.58
2018-11-14T17:00:43.756Z,71.37
2018-11-14T17:03:12.352Z,71.99
2018-11-14T17:05:40.408Z,70.99
2018-11-14T17:08:08.354Z,70.22
2018-11-14T17:10:36.288Z,69.83
2018-11-14T17:13:04.927Z,69.77
2018-11-14T17:15:33.010Z,69.41
2018-11-14T17:18:01.763Z,69.00
2018-11-14T17:20:30.015Z,69.42
2018-11-14T17:22:58.226Z,69.71
2018-11-14T17:25:26.241Z,69.39
2018-11-14T17:27:54.248Z,68.97
2018-11-14T17:30:25.394Z,69.37
2018-11-14T17:32:53.741Z,70.26
2018-11-14T17:35:21.741Z,70.00
2018-11-14T17:37:49.737Z,69.99
2018-11-14T17:40:19.923Z,69.21
2018-11-14T17:42:48.846Z,69.92
2018-11-14T17:45:18.048Z,68.97
2018-11-14T17:47:46.675Z,69.04
2018-11-14T17:50:18.074Z,68.63
2018-11-14T17:52:47.030Z,68.99
2018-11-14T17:55:19.474Z,68.46
2018-11-14T17:57:47.494Z,68.77
2018-11-14T18:00:17.430Z,67.61
2018-11-14T18:02:45.875Z,67.65
2018-11-14T18:05:16.080Z,68.14
2018-11-14T18:07:45.029Z,67.87
2018-11-14T18:10:17.335Z,68.41
2018-11-14T18:12:46.335Z,68.88
2018-11-14T18:15:14.346Z,68.21
2018-11-14T18:17:42.531Z,67.48
2018-11-14T18:20:12.432Z,67.95
2018-11-14T18:22:41.028Z,68.58
2018-11-14T18:25:09.636Z,67.98
2018-11-14T18:27:37.807Z,68.36
2018-11-14T18:30:19.622Z,68.55
2018-11-14T18:32:47.616Z,68.52
2018-11-14T18:35:16.450Z,68.04
2018-11-14T18:37:44.998Z,68.02
2018-11-14T18:40:15.816Z,67.88
2018-11-14T18:42:43.881Z,68.39
2018-11-14T18:45:14.858Z,67.94
2018-11-14T18:47:43.371Z,67.84
2018-11-14T18:50:12.377Z,67.32
2018-11-14T18:52:40.490Z,67.12
2018-11-14T18:55:10.277Z,66.96
2018-11-14T18:57:40.878Z,67.37
2018-11-14T19:00:15.735Z,68.67
2018-11-14T19:02:43.868Z,67.26
2018-11-14T19:05:12.336Z,67.35
2018-11-14T19:07:40.392Z,67.77
2018-11-14T19:10:11.225Z,67.91
2018-11-14T19:12:39.775Z,68.35
2018-11-14T19:15:09.861Z,68.11
2018-11-14T19:17:37.844Z,67.45
2018-11-14T19:20:07.475Z,68.00
2018-11-14T19:22:35.838Z,67.85
2018-11-14T19:25:03.878Z,67.55
2018-11-14T19:27:31.979Z,67.63
2018-11-14T19:30:00.100Z,68.07
2018-11-14T19:32:28.365Z,67.48
2018-11-14T19:34:56.358Z,67.44
2018-11-14T19:37:24.623Z,68.61
2018-11-14T19:39:52.583Z,68.44
2018-11-14T19:42:20.609Z,68.04
2018-11-14T19:44:48.571Z,68.11
2018-11-14T19:47:16.582Z,67.84
2018-11-14T19:49:44.545Z,67.55
2018-11-14T19:52:13.406Z,68.01
2018-11-14T19:54:41.385Z,67.99
2018-11-14T19:57:09.299Z,67.72
2018-11-14T19:59:37.210Z,67.29
2018-11-14T20:02:05.239Z,67.37
2018-11-14T20:04:33.197Z,67.53
2018-11-14T20:07:01.165Z,67.70
2018-11-14T20:09:29.351Z,67.39
2018-11-14T20:11:57.472Z,67.79
2018-11-14T20:14:25.574Z,67.22
2018-11-14T20:16:53.964Z,67.56
2018-11-14T20:19:22.850Z,67.42
2018-11-14T20:21:51.280Z,67.58
2018-11-14T20:24:19.274Z,66.48
2018-11-14T20:26:49.218Z,67.32
2018-11-14T20:29:17.103Z,67.84
2018-11-14T20:31:45.037Z,67.62
2018-11-14T20:34:13.045Z,68.09
2018-11-14T20:36:41.049Z,67.90
2018-11-14T20:39:11.105Z,68.14
2018-11-14T20:41:39.066Z,68.23
2018-11-14T20:44:07.076Z,69.21
2018-11-14T20:46:37.009Z,69.38
2018-11-14T20:49:05.198Z,69.87
2018-11-14T20:51:33.327Z,69.03
2018-11-14T20:54:01.630Z,68.93
2018-11-14T20:56:29.584Z,69.39
2018-11-14T20:58:57.487Z,69.90
2018-11-14T21:01:25.493Z,69.49
2018-11-14T21:03:53.597Z,69.74
2018-11-14T21:06:21.777Z,68.98
2018-11-14T21:08:49.787Z,68.76
2018-11-14T21:11:18.698Z,69.31
2018-11-14T21:13:46.754Z,68.22
2018-11-14T21:16:14.726Z,69.52
2018-11-14T21:18:42.668Z,69.31
2018-11-14T21:21:10.545Z,69.55
2018-11-14T21:23:38.477Z,69.73
2018-11-14T21:26:06.428Z,68.98
2018-11-14T21:28:34.478Z,69.20
2018-11-14T21:31:03.307Z,70.11
2018-11-14T21:33:31.385Z,69.87
2018-11-14T21:35:59.462Z,69.27
2018-11-14T21:38:27.587Z,69.49
2018-11-14T21:40:55.921Z,69.23
2018-11-14T21:43:23.873Z,69.62
2018-11-14T21:45:52.059Z,69.29
2018-11-14T21:48:20.118Z,69.24
2018-11-14T21:50:48.028Z,69.34
2018-11-14T21:53:16.031Z,69.37
2018-11-14T21:55:43.940Z,69.33
2018-11-14T21:58:13.431Z,69.89
2018-11-14T22:00:41.558Z,69.90
2018-11-14T22:03:10.107Z,69.31
2018-11-14T22:05:38.382Z,69.44
2018-11-14T22:08:07.341Z,68.92
2018-11-14T22:10:35.387Z,68.51
2018-11-14T22:13:03.293Z,68.85
2018-11-14T22:15:31.574Z,68.73
2018-11-14T22:17:59.584Z,69.49
2018-11-14T22:20:28.042Z,70.55
2018-11-14T22:22:55.984Z,70.60
2018-11-14T22:25:24.834Z,70.52
2018-11-14T22:27:52.932Z,70.67
2018-11-14T22:30:30.577Z,69.32
2018-11-14T22:32:58.572Z,71.13
2018-11-14T22:35:27.836Z,71.52
2018-11-14T22:37:56.604Z,70.94
2018-11-14T22:40:25.642Z,70.67
2018-11-14T22:42:53.552Z,71.16
2018-11-14T22:45:26.754Z,70.29
2018-11-14T22:47:54.690Z,69.31
2018-11-14T22:50:23.599Z,70.17
2018-11-14T22:52:51.793Z,69.80
2018-11-14T22:55:20.703Z,70.05
2018-11-14T22:57:49.489Z,70.13
2018-11-14T23:00:28.968Z,69.87
2018-11-14T23:02:57.951Z,70.68
2018-11-14T23:05:25.936Z,70.57
2018-11-14T23:07:54.587Z,71.14
2018-11-14T23:10:23.237Z,72.71
2018-11-14T23:12:51.405Z,71.92
2018-11-14T23:15:19.838Z,72.13
2018-11-14T23:17:47.981Z,71.50
2018-11-14T23:20:16.421Z,71.43
2018-11-14T23:22:45.175Z,71.62
2018-11-14T23:25:13.649Z,71.25
2018-11-14T23:27:42.775Z,71.51
2018-11-14T23:30:12.055Z,70.90
2018-11-14T23:32:40.985Z,70.61
2018-11-14T23:35:14.322Z,72.33
2018-11-14T23:37:42.418Z,72.77
2018-11-14T23:40:10.502Z,72.82
2018-11-14T23:42:38.458Z,72.50
2018-11-14T23:45:08.719Z,72.15
2018-11-14T23:47:36.897Z,72.16
2018-11-14T23:50:07.764Z,71.11
2018-11-14T23:52:38.659Z,72.38
2018-11-14T23:55:06.993Z,71.82
2018-11-14T23:57:34.899Z,72.37
